createdAt,value
2023-04-28T00:02:19.063Z,20.45
2023-04-28T00:04:47.545Z,22.98
2023-04-28T00:07:14.783Z,18.33
2023-04-28T00:09:41.830Z,26.65
2023-04-28T00:12:08.904Z,23.80
2023-04-28T00:14:36.152Z,23.73
2023-04-28T00:17:03.470Z,22.75
2023-04-28T00:19:30.630Z,27.20
2023-04-28T00:21:57.636Z,22.45
2023-04-28T00:24:24.562Z,21.33
2023-04-28T00:26:52.367Z,22.20
2023-04-28T00:29:19.468Z,27.10
2023-04-28T00:31:46.477Z,25.77
2023-04-28T00:34:15.163Z,24.30
2023-04-28T00:36:42.723Z,22.10
2023-04-28T00:39:10.150Z,22.02
2023-04-28T00:41:37.496Z,21.95
2023-04-28T00:44:04.853Z,23.20
2023-04-28T00:46:33.403Z,21.60
2023-04-28T00:49:00.471Z,25.38
2023-04-28T00:51:29.189Z,26.55
2023-04-28T00:53:57.343Z,22.08
2023-04-28T00:56:27.482Z,23.48
2023-04-28T00:58:54.629Z,20.58
2023-04-28T01:01:28.527Z,21.17
2023-04-28T01:03:59.909Z,24.30
2023-04-28T01:06:29.377Z,32.95
2023-04-28T01:08:59.044Z,21.48
2023-04-28T01:11:26.036Z,21.77
2023-04-28T01:14:07.974Z,20.83
2023-04-28T01:16:39.245Z,24.98
2023-04-28T01:19:09.869Z,25.52
2023-04-28T01:21:39.563Z,21.35
2023-04-28T01:24:18.962Z,24.95
2023-04-28T01:26:46.369Z,22.85
2023-04-28T01:29:13.497Z,25.05
2023-04-28T01:31:41.991Z,20.90
2023-04-28T01:34:09.010Z,18.75
2023-04-28T01:36:37.807Z,21.77
2023-04-28T01:39:05.697Z,21.23
2023-04-28T01:41:34.649Z,19.92
2023-04-28T01:44:02.057Z,19.90
2023-04-28T01:46:29.019Z,21.80
2023-04-28T01:48:56.011Z,24.00
2023-04-28T01:51:22.946Z,25.17
2023-04-28T01:53:49.936Z,24.13
2023-04-28T01:56:16.936Z,22.17
2023-04-28T01:58:43.885Z,26.92
2023-04-28T02:01:13.205Z,27.20
2023-04-28T02:03:41.819Z,21.85
2023-04-28T02:21:26.402Z,23.42
2023-04-28T02:23:53.610Z,23.23
2023-04-28T02:26:20.546Z,24.92
2023-04-28T02:28:51.823Z,24.73
2023-04-28T02:31:18.789Z,28.52
2023-04-28T02:33:46.617Z,25.88
2023-04-28T02:36:13.761Z,24.98
2023-04-28T02:38:41.781Z,27.25
2023-04-28T02:41:09.441Z,22.45
2023-04-28T02:43:37.922Z,30.38
2023-04-28T02:46:05.683Z,24.58
2023-04-28T02:48:35.522Z,24.40
2023-04-28T02:51:03.010Z,21.83
2023-04-28T02:53:30.157Z,22.50
2023-04-28T02:55:57.199Z,20.88
2023-04-28T02:58:24.196Z,19.15
2023-04-28T03:00:51.166Z,18.88
2023-04-28T03:03:18.375Z,21.20
2023-04-28T03:05:46.165Z,18.60
2023-04-28T03:08:13.207Z,16.08
2023-04-28T03:10:40.200Z,19.85
2023-04-28T03:13:07.268Z,21.92
2023-04-28T03:15:34.850Z,19.83
2023-04-28T03:18:03.505Z,20.90
2023-04-28T03:20:30.741Z,18.25
2023-04-28T03:22:57.683Z,19.85
2023-04-28T03:25:24.769Z,18.02
2023-04-28T03:27:52.335Z,20.55
2023-04-28T03:30:19.341Z,19.33
2023-04-28T03:32:46.796Z,21.42
2023-04-28T03:35:14.257Z,19.23
2023-04-28T03:37:41.953Z,17.40
2023-04-28T03:40:09.729Z,19.80
2023-04-28T03:42:54.344Z,18.50
2023-04-28T03:45:29.067Z,19.40
2023-04-28T03:47:56.228Z,18.35
2023-04-28T03:50:25.345Z,17.42
2023-04-28T03:52:53.682Z,20.02
2023-04-28T03:55:20.642Z,20.25
2023-04-28T03:57:47.913Z,16.52
2023-04-28T04:00:15.040Z,13.95
2023-04-28T04:02:44.868Z,19.52
2023-04-28T04:05:12.088Z,19.05
2023-04-28T04:07:39.181Z,16.13
2023-04-28T04:10:07.574Z,15.65
2023-04-28T04:12:37.414Z,15.57
2023-04-28T04:15:04.877Z,18.17
2023-04-28T04:17:32.444Z,17.17
2023-04-28T04:19:59.455Z,23.00
2023-04-28T04:22:27.221Z,15.50
2023-04-28T04:24:54.146Z,13.07
2023-04-28T04:27:22.269Z,15.70
2023-04-28T04:29:49.229Z,11.52
2023-04-28T04:32:16.224Z,16.15
2023-04-28T04:34:43.233Z,15.32
2023-04-28T04:37:11.128Z,11.30
2023-04-28T04:39:45.176Z,14.93
2023-04-28T04:42:24.252Z,11.30
2023-04-28T04:45:09.336Z,9.55
2023-04-28T04:47:36.997Z,8.65
2023-04-28T04:50:04.101Z,13.05
2023-04-28T04:52:31.268Z,9.45
2023-04-28T04:54:59.330Z,9.57
2023-04-28T04:57:26.410Z,8.30
2023-04-28T05:00:12.705Z,7.18
2023-04-28T05:02:42.871Z,8.05
2023-04-28T05:05:20.619Z,6.28
2023-04-28T05:08:05.985Z,7.22
2023-04-28T05:10:33.494Z,5.30
2023-04-28T05:13:02.385Z,5.05
2023-04-28T05:15:29.595Z,6.38
2023-04-28T05:18:28.978Z,5.80
2023-04-28T05:20:56.481Z,5.47
2023-04-28T05:23:25.126Z,4.43
2023-04-28T05:25:52.213Z,3.80
2023-04-28T05:28:21.886Z,4.50
2023-04-28T05:30:50.105Z,5.30
2023-04-28T05:33:17.398Z,5.00
2023-04-28T05:35:44.386Z,3.83
2023-04-28T05:38:11.451Z,3.60
2023-04-28T05:40:38.534Z,3.72
2023-04-28T05:43:05.760Z,4.07
2023-04-28T05:45:33.233Z,4.10
2023-04-28T05:48:00.252Z,8.43
2023-04-28T05:50:27.882Z,6.20
2023-04-28T05:52:54.829Z,5.75
2023-04-28T05:55:22.099Z,3.85
2023-04-28T05:57:53.141Z,3.65
2023-04-28T06:00:22.242Z,3.85
2023-04-28T06:02:53.687Z,4.22
2023-04-28T06:05:21.989Z,4.50
2023-04-28T06:07:52.437Z,4.20
2023-04-28T06:10:21.704Z,4.43
2023-04-28T06:12:48.649Z,5.82
2023-04-28T06:15:16.203Z,4.10
2023-04-28T14:00:05.272Z,1.10
2023-04-28T14:02:34.565Z,1.33
2023-04-28T14:05:01.575Z,1.02
2023-04-28T14:07:28.588Z,0.90
2023-04-28T14:09:55.947Z,1.08
2023-04-28T14:12:22.841Z,0.88
2023-04-28T14:14:50.080Z,1.10
2023-04-28T14:17:17.261Z,0.93
2023-04-28T14:19:45.577Z,0.90
2023-04-28T14:22:12.596Z,2.30
2023-04-28T14:24:39.742Z,1.25
2023-04-28T14:27:07.450Z,0.80
2023-04-28T14:29:34.455Z,1.00
2023-04-28T14:32:01.579Z,0.77
2023-04-28T14:34:28.784Z,1.27
2023-04-28T14:36:56.806Z,3.00
2023-04-28T14:39:23.795Z,1.27
2023-04-28T14:41:50.816Z,0.80
2023-04-28T14:44:17.819Z,1.00
2023-04-28T14:46:44.872Z,2.55
2023-04-28T14:49:12.218Z,1.95
2023-04-28T14:51:39.222Z,1.00
2023-04-28T14:54:06.261Z,1.98
2023-04-28T14:56:33.966Z,0.90
2023-04-28T14:59:01.125Z,0.80
2023-04-28T15:01:28.205Z,1.20
2023-04-28T15:03:55.387Z,1.10
2023-04-28T15:06:22.816Z,0.80
2023-04-28T15:08:49.708Z,0.90
2023-04-28T15:11:16.814Z,0.90
2023-04-28T15:13:43.706Z,0.73
2023-04-28T15:16:10.991Z,0.93
2023-04-28T15:18:38.423Z,0.85
2023-04-28T15:21:06.321Z,0.75
2023-04-28T15:23:33.248Z,0.88
2023-04-28T15:26:00.544Z,0.80
2023-04-28T15:28:28.492Z,0.80
2023-04-28T15:30:55.564Z,1.00
2023-04-28T15:33:22.736Z,0.70
2023-04-28T15:35:50.078Z,2.40
2023-04-28T15:38:17.693Z,1.33
2023-04-28T15:40:46.021Z,0.80
2023-04-28T15:43:13.388Z,0.93
2023-04-28T15:45:40.542Z,1.05
2023-04-28T15:48:07.717Z,1.20
2023-04-28T15:50:37.323Z,0.88
2023-04-28T15:53:04.403Z,0.95
2023-04-28T15:55:31.456Z,1.38
2023-04-28T15:58:00.819Z,0.70
2023-04-28T16:00:28.029Z,1.33
2023-04-28T16:02:55.121Z,1.25
2023-04-28T16:05:22.265Z,1.30
2023-04-28T16:07:49.948Z,1.10
2023-04-28T16:10:17.301Z,0.75
2023-04-28T16:12:44.290Z,0.82
2023-04-28T16:15:13.178Z,0.85
2023-04-28T16:17:41.298Z,2.63
2023-04-28T16:20:09.685Z,2.03
2023-04-28T16:22:37.967Z,1.13
2023-04-28T16:25:06.677Z,3.22
2023-04-28T16:27:35.211Z,0.80
2023-04-28T16:30:03.477Z,0.88
2023-04-28T16:32:30.761Z,1.02
2023-04-28T16:34:58.595Z,0.90
2023-04-28T16:37:26.146Z,1.63
2023-04-28T16:39:53.151Z,1.30
2023-04-28T16:42:23.033Z,1.17
2023-04-28T16:44:52.457Z,2.22
2023-04-28T16:47:20.620Z,1.15
2023-04-28T16:49:48.056Z,1.23
2023-04-28T16:52:15.253Z,1.20
2023-04-28T16:54:42.416Z,1.95
2023-04-28T16:57:09.374Z,1.48
2023-04-28T16:59:36.553Z,1.10
2023-04-28T17:02:03.925Z,1.38
2023-04-28T17:04:31.434Z,7.43
2023-04-28T17:06:58.879Z,3.35
2023-04-28T17:09:27.482Z,1.45
2023-04-28T17:11:55.407Z,3.65
2023-04-28T17:14:22.587Z,2.25
2023-04-28T17:16:49.710Z,2.25
2023-04-28T17:19:16.909Z,1.25
2023-04-28T17:21:43.944Z,1.30
2023-04-28T17:24:10.906Z,1.35
2023-04-28T17:26:38.113Z,1.30
2023-04-28T17:29:05.281Z,1.27
2023-04-28T17:31:32.465Z,2.05
2023-04-28T17:34:00.302Z,2.78
2023-04-28T17:36:28.598Z,1.63
2023-04-28T17:38:56.171Z,1.80
2023-04-28T17:41:23.533Z,2.95
2023-04-28T17:43:53.828Z,1.65
2023-04-28T17:46:21.854Z,2.17
2023-04-28T17:48:49.143Z,4.28
2023-04-28T17:51:16.050Z,1.75
2023-04-28T17:53:43.254Z,2.42
2023-04-28T17:56:10.944Z,1.58
2023-04-28T17:58:37.840Z,1.90
2023-04-28T18:01:06.691Z,4.43
2023-04-28T18:03:38.596Z,3.05
2023-04-28T18:06:07.511Z,3.95
2023-04-28T18:08:35.484Z,2.30
2023-04-28T18:11:03.508Z,3.65
2023-04-28T18:13:30.480Z,3.90
2023-04-28T18:15:57.714Z,2.78
2023-04-28T18:18:25.111Z,3.45
2023-04-28T18:20:58.492Z,5.05
2023-04-28T18:23:26.656Z,3.35
2023-04-28T18:25:54.051Z,2.72
2023-04-28T18:28:21.268Z,5.40
2023-04-28T18:30:48.138Z,3.97
2023-04-28T18:33:15.132Z,4.20
2023-04-28T18:35:42.055Z,4.78
2023-04-28T18:38:09.071Z,6.53
2023-04-28T18:40:40.039Z,7.28
2023-04-28T18:43:08.586Z,5.22
2023-04-28T18:45:39.089Z,5.30
2023-04-28T18:48:07.485Z,6.85
2023-04-28T18:50:34.829Z,6.20
2023-04-28T18:53:02.279Z,4.32
2023-04-28T18:55:29.262Z,4.75
2023-04-28T18:57:56.522Z,6.72
2023-04-28T19:00:23.716Z,4.07
2023-04-28T19:02:51.020Z,9.00
2023-04-28T19:05:18.110Z,5.10
2023-04-28T19:07:45.123Z,8.10
2023-04-28T19:10:12.881Z,4.18
2023-04-28T19:12:39.945Z,4.43
2023-04-28T19:15:07.355Z,5.32
2023-04-28T19:17:34.326Z,10.55
2023-04-28T19:20:01.352Z,5.95
2023-04-28T19:22:29.173Z,4.75
2023-04-28T19:24:56.110Z,8.27
2023-04-28T19:27:23.205Z,4.57
2023-04-28T19:29:50.386Z,5.32
2023-04-28T19:32:17.521Z,6.63
2023-04-28T19:34:44.399Z,8.10
2023-04-28T19:37:11.588Z,5.50
2023-04-28T19:39:38.751Z,6.68
2023-04-28T19:42:05.782Z,5.78
2023-04-28T19:44:33.672Z,6.15
2023-04-28T19:47:04.201Z,4.70
2023-04-28T19:49:31.555Z,6.10
2023-04-28T19:51:58.527Z,5.03
2023-04-28T19:54:26.121Z,8.85
2023-04-28T19:56:56.050Z,8.98
2023-04-28T19:59:23.261Z,8.48
2023-04-28T20:01:50.619Z,6.72
2023-04-28T20:04:18.369Z,7.10
2023-04-28T20:06:45.673Z,6.95
2023-04-28T20:09:12.560Z,6.70
2023-04-28T20:11:40.391Z,7.18
2023-04-28T20:14:07.468Z,8.50
2023-04-28T20:16:34.523Z,9.88
2023-04-28T20:19:01.675Z,6.80
2023-04-28T20:21:28.679Z,7.93
2023-04-28T20:23:55.598Z,11.18
2023-04-28T20:26:22.528Z,8.88
2023-04-28T20:28:50.570Z,11.55
2023-04-28T20:31:17.687Z,9.38
2023-04-28T20:33:44.601Z,10.15
2023-04-28T20:36:13.173Z,11.10
2023-04-28T20:38:40.271Z,10.43
2023-04-28T20:41:07.730Z,8.27
2023-04-28T20:43:34.716Z,9.02
2023-04-28T20:46:01.749Z,13.52
2023-04-28T20:48:30.003Z,9.82
2023-04-28T20:50:57.814Z,6.30
2023-04-28T20:53:24.754Z,11.93
2023-04-28T20:55:52.045Z,14.52
2023-04-28T20:58:19.080Z,13.80
2023-04-28T21:00:46.065Z,11.95
2023-04-28T21:03:16.373Z,10.73
2023-04-28T21:05:45.699Z,11.57
2023-04-28T21:08:13.368Z,8.35
2023-04-28T21:10:40.841Z,10.05
2023-04-28T21:13:09.579Z,12.13
2023-04-28T21:15:37.976Z,10.88
2023-04-28T21:18:05.624Z,11.88
2023-04-28T21:20:32.630Z,10.73
2023-04-28T21:22:59.664Z,9.95
2023-04-28T21:25:26.559Z,10.95
2023-04-28T21:27:53.570Z,11.13
2023-04-28T21:30:21.956Z,11.48
2023-04-28T21:32:48.977Z,11.13
2023-04-28T21:35:18.903Z,13.68
2023-04-28T21:37:46.482Z,13.43
2023-04-28T21:40:14.017Z,15.38
2023-04-28T21:42:41.092Z,13.48
2023-04-28T21:45:09.563Z,13.70
2023-04-28T21:47:36.568Z,16.00
2023-04-28T21:50:03.800Z,15.02
2023-04-28T21:52:31.238Z,12.98
2023-04-28T21:54:59.129Z,12.02
2023-04-28T21:57:26.234Z,14.05
2023-04-28T21:59:53.308Z,11.00
2023-04-28T22:02:20.430Z,11.18
2023-04-28T22:04:47.580Z,13.18
2023-04-28T22:07:14.523Z,15.30
2023-04-28T22:09:41.438Z,13.48
2023-04-28T22:12:08.405Z,14.20
2023-04-28T22:14:41.042Z,13.20
2023-04-28T22:17:08.745Z,14.98
2023-04-28T22:19:35.805Z,14.27
2023-04-28T22:22:02.779Z,18.33
2023-04-28T22:24:29.677Z,16.65
2023-04-28T22:26:57.986Z,15.43
2023-04-28T22:29:25.701Z,20.92
2023-04-28T22:31:53.524Z,14.52
2023-04-28T22:34:21.418Z,15.52
2023-04-28T22:36:48.436Z,16.48
2023-04-28T22:39:15.595Z,21.65
2023-04-28T22:41:42.560Z,16.63
2023-04-28T22:44:10.078Z,15.15
2023-04-28T22:46:37.058Z,17.48
2023-04-28T22:49:04.968Z,16.08
2023-04-28T22:51:31.999Z,15.82
2023-04-28T22:53:58.933Z,20.08
2023-04-28T22:56:26.044Z,14.52
2023-04-28T22:58:53.096Z,15.38
2023-04-28T23:01:20.107Z,16.55
2023-04-28T23:03:50.714Z,15.23
2023-04-28T23:06:17.869Z,19.67
2023-04-28T23:08:44.880Z,19.50
2023-04-28T23:11:12.010Z,18.00
2023-04-28T23:13:39.297Z,14.65
2023-04-28T23:16:06.621Z,18.25
2023-04-28T23:18:33.692Z,16.85
2023-04-28T23:21:00.773Z,19.88
2023-04-28T23:23:27.902Z,20.83
2023-04-28T23:25:56.681Z,19.70
2023-04-28T23:28:23.674Z,15.77
2023-04-28T23:30:50.698Z,20.60
2023-04-28T23:33:17.758Z,15.32
2023-04-28T23:35:44.644Z,19.23
2023-04-28T23:38:12.437Z,31.90
2023-04-28T23:40:39.410Z,19.67
2023-04-28T23:43:06.440Z,13.68
2023-04-28T23:45:33.438Z,22.75
2023-04-28T23:48:00.423Z,34.58
2023-04-28T23:50:27.844Z,37.90
2023-04-28T23:52:54.806Z,30.08
2023-04-28T23:55:21.738Z,45.60
2023-04-28T23:57:48.684Z,26.83
